sensor_id;sensor_type;location;lat;lon;timestamp;temperature;humidity
28484;DHT22;15704;48.834;8.736;2022-08-19T00:00:31;19.10;99.90
28484;DHT22;15704;48.834;8.736;2022-08-19T00:04:16;19.10;99.90
28484;DHT22;15704;48.834;8.736;2022-08-19T00:07:59;19.00;99.90
28484;DHT22;15704;48.834;8.736;2022-08-19T00:11:43;19.00;99.90
28484;DHT22;15704;48.834;8.736;2022-08-19T00:15:26;18.90;99.90
28484;DHT22;15704;48.834;8.736;2022-08-19T00:19:10;19.00;99.90
28484;DHT22;15704;48.834;8.736;2022-08-19T00:22:53;19.00;99.90
28484;DHT22;15704;48.834;8.736;2022-08-19T00:26:37;19.00;99.90
28484;DHT22;15704;48.834;8.736;2022-08-19T00:30:19;19.00;99.90
28484;DHT22;15704;48.834;8.736;2022-08-19T00:34:02;19.00;99.90
28484;DHT22;15704;48.834;8.736;2022-08-19T00:37:47;19.00;99.90
28484;DHT22;15704;48.834;8.736;2022-08-19T00:41:30;19.10;99.90
28484;DHT22;15704;48.834;8.736;2022-08-19T00:45:16;19.00;99.90
28484;DHT22;15704;48.834;8.736;2022-08-19T00:49:00;19.00;99.90
28484;DHT22;15704;48.834;8.736;2022-08-19T00:52:48;18.90;99.90
28484;DHT22;15704;48.834;8.736;2022-08-19T00:56:32;18.90;99.90
28484;DHT22;15704;48.834;8.736;2022-08-19T01:00:18;18.90;99.90
28484;DHT22;15704;48.834;8.736;2022-08-19T01:04:01;18.90;99.90
28484;DHT22;15704;48.834;8.736;2022-08-19T01:07:44;18.90;99.90
28484;DHT22;15704;48.834;8.736;2022-08-19T01:11:30;18.90;99.90
28484;DHT22;15704;48.834;8.736;2022-08-19T01:15:21;18.80;99.90
28484;DHT22;15704;48.834;8.736;2022-08-19T01:19:10;18.80;99.90
28484;DHT22;15704;48.834;8.736;2022-08-19T01:22:57;18.80;99.90
28484;DHT22;15704;48.834;8.736;2022-08-19T01:26:45;18.70;99.90
28484;DHT22;15704;48.834;8.736;2022-08-19T01:30:32;18.70;99.90
28484;DHT22;15704;48.834;8.736;2022-08-19T01:34:15;18.80;99.90
28484;DHT22;15704;48.834;8.736;2022-08-19T01:38:04;18.70;99.90
28484;DHT22;15704;48.834;8.736;2022-08-19T01:41:49;18.70;99.90
28484;DHT22;15704;48.834;8.736;2022-08-19T01:45:33;18.80;99.90
28484;DHT22;15704;48.834;8.736;2022-08-19T01:49:18;18.70;99.90
28484;DHT22;15704;48.834;8.736;2022-08-19T01:53:06;18.70;99.90
28484;DHT22;15704;48.834;8.736;2022-08-19T01:56:49;18.70;99.90
28484;DHT22;15704;48.834;8.736;2022-08-19T02:00:34;18.70;99.90
28484;DHT22;15704;48.834;8.736;2022-08-19T02:04:17;18.60;99.90
28484;DHT22;15704;48.834;8.736;2022-08-19T02:07:59;18.50;99.90
28484;DHT22;15704;48.834;8.736;2022-08-19T02:11:44;18.60;99.90
28484;DHT22;15704;48.834;8.736;2022-08-19T02:15:26;18.50;99.90
28484;DHT22;15704;48.834;8.736;2022-08-19T02:19:11;18.50;99.90
28484;DHT22;15704;48.834;8.736;2022-08-19T02:22:54;18.50;99.90
28484;DHT22;15704;48.834;8.736;2022-08-19T02:26:36;18.50;99.90
28484;DHT22;15704;48.834;8.736;2022-08-19T02:30:21;18.50;99.90
28484;DHT22;15704;48.834;8.736;2022-08-19T02:34:05;18.40;99.90
28484;DHT22;15704;48.834;8.736;2022-08-19T02:37:48;18.40;99.90
28484;DHT22;15704;48.834;8.736;2022-08-19T02:41:48;18.30;99.90
28484;DHT22;15704;48.834;8.736;2022-08-19T02:45:33;18.30;99.90
28484;DHT22;15704;48.834;8.736;2022-08-19T02:49:20;18.20;99.90
28484;DHT22;15704;48.834;8.736;2022-08-19T02:53:03;18.20;99.90
28484;DHT22;15704;48.834;8.736;2022-08-19T02:56:45;18.20;99.90
28484;DHT22;15704;48.834;8.736;2022-08-19T03:00:28;18.10;99.90
28484;DHT22;15704;48.834;8.736;2022-08-19T03:04:15;18.10;99.90
28484;DHT22;15704;48.834;8.736;2022-08-19T03:08:01;18.00;99.90
28484;DHT22;15704;48.834;8.736;2022-08-19T03:11:45;18.00;99.90
28484;DHT22;15704;48.834;8.736;2022-08-19T03:15:30;18.00;99.90
28484;DHT22;15704;48.834;8.736;2022-08-19T03:19:16;18.00;99.90
28484;DHT22;15704;48.834;8.736;2022-08-19T03:22:59;17.90;99.90
28484;DHT22;15704;48.834;8.736;2022-08-19T03:26:44;17.90;99.90
28484;DHT22;15704;48.834;8.736;2022-08-19T03:30:27;17.90;99.90
28484;DHT22;15704;48.834;8.736;2022-08-19T03:34:10;17.90;99.90
28484;DHT22;15704;48.834;8.736;2022-08-19T03:37:57;17.80;99.90
28484;DHT22;15704;48.834;8.736;2022-08-19T03:41:42;17.80;99.90
28484;DHT22;15704;48.834;8.736;2022-08-19T03:45:28;17.80;99.90
28484;DHT22;15704;48.834;8.736;2022-08-19T03:49:11;17.80;99.90
28484;DHT22;15704;48.834;8.736;2022-08-19T03:52:58;17.80;99.90
28484;DHT22;15704;48.834;8.736;2022-08-19T03:56:44;17.80;99.90
28484;DHT22;15704;48.834;8.736;2022-08-19T04:00:27;17.70;99.90
28484;DHT22;15704;48.834;8.736;2022-08-19T04:04:10;17.70;99.90
28484;DHT22;15704;48.834;8.736;2022-08-19T04:07:52;17.70;99.90
28484;DHT22;15704;48.834;8.736;2022-08-19T04:11:39;17.70;99.90
28484;DHT22;15704;48.834;8.736;2022-08-19T04:15:24;17.70;99.90
28484;DHT22;15704;48.834;8.736;2022-08-19T04:19:07;17.60;99.90
28484;DHT22;15704;48.834;8.736;2022-08-19T04:22:50;17.60;99.90
28484;DHT22;15704;48.834;8.736;2022-08-19T04:26:34;17.60;99.90
28484;DHT22;15704;48.834;8.736;2022-08-19T04:30:19;17.60;99.90
28484;DHT22;15704;48.834;8.736;2022-08-19T04:34:06;17.60;99.90
28484;DHT22;15704;48.834;8.736;2022-08-19T04:37:49;17.60;99.90
28484;DHT22;15704;48.834;8.736;2022-08-19T04:41:32;17.70;99.90
28484;DHT22;15704;48.834;8.736;2022-08-19T04:45:36;17.70;99.90
28484;DHT22;15704;48.834;8.736;2022-08-19T04:49:24;17.70;99.90
28484;DHT22;15704;48.834;8.736;2022-08-19T04:53:08;17.80;99.90
28484;DHT22;15704;48.834;8.736;2022-08-19T04:56:51;17.80;99.90
28484;DHT22;15704;48.834;8.736;2022-08-19T05:00:37;17.80;99.90
28484;DHT22;15704;48.834;8.736;2022-08-19T05:04:21;17.80;99.90
28484;DHT22;15704;48.834;8.736;2022-08-19T05:08:04;17.80;99.90
28484;DHT22;15704;48.834;8.736;2022-08-19T05:11:46;17.80;99.90
28484;DHT22;15704;48.834;8.736;2022-08-19T05:15:31;17.80;99.90
28484;DHT22;15704;48.834;8.736;2022-08-19T05:19:15;17.80;99.90
28484;DHT22;15704;48.834;8.736;2022-08-19T05:23:17;17.90;99.90
28484;DHT22;15704;48.834;8.736;2022-08-19T05:27:04;17.90;99.90
28484;DHT22;15704;48.834;8.736;2022-08-19T05:30:47;17.90;99.90
28484;DHT22;15704;48.834;8.736;2022-08-19T05:34:33;17.90;99.90
28484;DHT22;15704;48.834;8.736;2022-08-19T05:38:16;17.90;99.90
28484;DHT22;15704;48.834;8.736;2022-08-19T05:42:03;17.90;99.90
28484;DHT22;15704;48.834;8.736;2022-08-19T05:45:47;18.00;99.90
28484;DHT22;15704;48.834;8.736;2022-08-19T05:49:33;18.00;99.90
28484;DHT22;15704;48.834;8.736;2022-08-19T05:53:17;18.10;99.90
28484;DHT22;15704;48.834;8.736;2022-08-19T05:57:00;18.00;99.90
28484;DHT22;15704;48.834;8.736;2022-08-19T06:00:44;18.10;99.90
28484;DHT22;15704;48.834;8.736;2022-08-19T06:04:26;18.20;99.90
28484;DHT22;15704;48.834;8.736;2022-08-19T06:08:13;18.20;99.90
28484;DHT22;15704;48.834;8.736;2022-08-19T06:11:58;18.30;99.90
28484;DHT22;15704;48.834;8.736;2022-08-19T06:15:41;18.40;99.90
28484;DHT22;15704;48.834;8.736;2022-08-19T06:19:25;18.30;99.90
28484;DHT22;15704;48.834;8.736;2022-08-19T06:23:11;18.50;99.90
28484;DHT22;15704;48.834;8.736;2022-08-19T06:26:59;18.50;99.90
28484;DHT22;15704;48.834;8.736;2022-08-19T06:30:42;18.70;99.90
28484;DHT22;15704;48.834;8.736;2022-08-19T06:34:26;18.70;99.90
28484;DHT22;15704;48.834;8.736;2022-08-19T06:38:10;18.80;99.90
28484;DHT22;15704;48.834;8.736;2022-08-19T06:41:53;18.90;99.90
28484;DHT22;15704;48.834;8.736;2022-08-19T06:45:40;18.80;99.90
28484;DHT22;15704;48.834;8.736;2022-08-19T06:49:23;18.90;99.90
28484;DHT22;15704;48.834;8.736;2022-08-19T06:53:13;18.80;99.90
28484;DHT22;15704;48.834;8.736;2022-08-19T06:56:56;19.00;99.90
28484;DHT22;15704;48.834;8.736;2022-08-19T07:00:40;19.00;99.90
28484;DHT22;15704;48.834;8.736;2022-08-19T07:04:24;19.00;99.90
28484;DHT22;15704;48.834;8.736;2022-08-19T07:08:07;19.00;99.90
28484;DHT22;15704;48.834;8.736;2022-08-19T07:11:52;19.10;99.90
28484;DHT22;15704;48.834;8.736;2022-08-19T07:15:36;19.20;99.90
28484;DHT22;15704;48.834;8.736;2022-08-19T07:19:23;19.00;99.90
28484;DHT22;15704;48.834;8.736;2022-08-19T07:23:07;18.90;99.90
28484;DHT22;15704;48.834;8.736;2022-08-19T07:26:54;19.00;99.90
28484;DHT22;15704;48.834;8.736;2022-08-19T07:30:38;19.00;99.90
28484;DHT22;15704;48.834;8.736;2022-08-19T07:34:26;19.10;99.90
28484;DHT22;15704;48.834;8.736;2022-08-19T07:38:09;19.00;99.90
28484;DHT22;15704;48.834;8.736;2022-08-19T07:41:52;19.00;99.90
28484;DHT22;15704;48.834;8.736;2022-08-19T07:45:35;19.10;99.90
28484;DHT22;15704;48.834;8.736;2022-08-19T07:49:19;19.30;99.90
28484;DHT22;15704;48.834;8.736;2022-08-19T07:53:03;19.30;99.90
28484;DHT22;15704;48.834;8.736;2022-08-19T07:56:46;19.30;99.90
28484;DHT22;15704;48.834;8.736;2022-08-19T08:00:33;19.50;99.90
28484;DHT22;15704;48.834;8.736;2022-08-19T08:04:17;19.70;99.90
28484;DHT22;15704;48.834;8.736;2022-08-19T08:08:19;19.80;99.90
28484;DHT22;15704;48.834;8.736;2022-08-19T08:12:30;20.00;99.90
28484;DHT22;15704;48.834;8.736;2022-08-19T08:16:15;20.40;99.90
28484;DHT22;15704;48.834;8.736;2022-08-19T08:19:59;20.70;99.90
28484;DHT22;15704;48.834;8.736;2022-08-19T08:23:43;20.90;99.90
28484;DHT22;15704;48.834;8.736;2022-08-19T08:27:27;21.00;99.90
28484;DHT22;15704;48.834;8.736;2022-08-19T08:31:12;21.00;99.90
28484;DHT22;15704;48.834;8.736;2022-08-19T08:34:55;20.90;99.90
28484;DHT22;15704;48.834;8.736;2022-08-19T08:38:38;20.80;99.90
28484;DHT22;15704;48.834;8.736;2022-08-19T08:42:29;20.90;99.90
28484;DHT22;15704;48.834;8.736;2022-08-19T08:46:17;21.20;99.90
28484;DHT22;15704;48.834;8.736;2022-08-19T08:50:15;21.50;99.90
28484;DHT22;15704;48.834;8.736;2022-08-19T08:54:02;21.40;99.90
28484;DHT22;15704;48.834;8.736;2022-08-19T08:57:52;21.50;99.90
28484;DHT22;15704;48.834;8.736;2022-08-19T09:01:36;21.10;99.90
28484;DHT22;15704;48.834;8.736;2022-08-19T09:05:23;21.00;99.90
28484;DHT22;15704;48.834;8.736;2022-08-19T09:09:25;21.10;99.90
28484;DHT22;15704;48.834;8.736;2022-08-19T09:13:20;21.00;99.90
28484;DHT22;15704;48.834;8.736;2022-08-19T09:17:04;21.00;99.90
28484;DHT22;15704;48.834;8.736;2022-08-19T09:20:49;21.00;99.90
28484;DHT22;15704;48.834;8.736;2022-08-19T09:24:32;21.20;99.90
28484;DHT22;15704;48.834;8.736;2022-08-19T09:28:18;20.90;99.90
28484;DHT22;15704;48.834;8.736;2022-08-19T09:32:07;21.10;99.90
28484;DHT22;15704;48.834;8.736;2022-08-19T09:36:10;21.40;99.90
28484;DHT22;15704;48.834;8.736;2022-08-19T09:40:03;21.30;99.90
28484;DHT22;15704;48.834;8.736;2022-08-19T09:43:49;21.30;99.90
28484;DHT22;15704;48.834;8.736;2022-08-19T09:47:33;21.30;99.90
28484;DHT22;15704;48.834;8.736;2022-08-19T09:51:21;21.50;99.90
28484;DHT22;15704;48.834;8.736;2022-08-19T09:55:04;21.70;99.90
28484;DHT22;15704;48.834;8.736;2022-08-19T09:58:49;21.80;99.90
28484;DHT22;15704;48.834;8.736;2022-08-19T10:02:32;22.10;99.90
28484;DHT22;15704;48.834;8.736;2022-08-19T10:06:15;22.00;99.90
28484;DHT22;15704;48.834;8.736;2022-08-19T10:10:04;21.90;99.90
28484;DHT22;15704;48.834;8.736;2022-08-19T10:13:49;22.30;99.90
28484;DHT22;15704;48.834;8.736;2022-08-19T10:17:31;22.80;99.90
28484;DHT22;15704;48.834;8.736;2022-08-19T10:21:19;23.10;99.90
28484;DHT22;15704;48.834;8.736;2022-08-19T10:25:01;23.20;99.90
28484;DHT22;15704;48.834;8.736;2022-08-19T10:28:44;23.10;99.90
28484;DHT22;15704;48.834;8.736;2022-08-19T10:32:28;23.10;99.90
28484;DHT22;15704;48.834;8.736;2022-08-19T10:36:17;22.90;99.90
28484;DHT22;15704;48.834;8.736;2022-08-19T10:40:01;23.10;99.90
28484;DHT22;15704;48.834;8.736;2022-08-19T10:43:45;23.30;99.90
28484;DHT22;15704;48.834;8.736;2022-08-19T10:47:30;23.30;99.90
28484;DHT22;15704;48.834;8.736;2022-08-19T10:51:14;23.10;99.90
28484;DHT22;15704;48.834;8.736;2022-08-19T10:55:14;23.00;99.90
28484;DHT22;15704;48.834;8.736;2022-08-19T10:59:16;23.10;99.90
28484;DHT22;15704;48.834;8.736;2022-08-19T11:03:00;22.70;99.90
28484;DHT22;15704;48.834;8.736;2022-08-19T11:06:43;22.70;99.90
28484;DHT22;15704;48.834;8.736;2022-08-19T11:10:29;22.90;99.90
28484;DHT22;15704;48.834;8.736;2022-08-19T11:14:13;23.30;99.90
28484;DHT22;15704;48.834;8.736;2022-08-19T11:17:57;23.80;99.90
28484;DHT22;15704;48.834;8.736;2022-08-19T11:25:18;24.00;99.90
28484;DHT22;15704;48.834;8.736;2022-08-19T11:29:03;23.50;99.90
28484;DHT22;15704;48.834;8.736;2022-08-19T11:32:47;23.30;99.90
28484;DHT22;15704;48.834;8.736;2022-08-19T11:36:31;23.80;99.90
28484;DHT22;15704;48.834;8.736;2022-08-19T11:40:14;24.00;99.90
28484;DHT22;15704;48.834;8.736;2022-08-19T11:43:58;24.10;99.90
28484;DHT22;15704;48.834;8.736;2022-08-19T11:47:41;23.90;99.90
28484;DHT22;15704;48.834;8.736;2022-08-19T11:51:26;23.80;99.90
28484;DHT22;15704;48.834;8.736;2022-08-19T11:55:10;24.30;99.90
28484;DHT22;15704;48.834;8.736;2022-08-19T11:58:53;24.60;99.90
28484;DHT22;15704;48.834;8.736;2022-08-19T12:02:39;25.10;99.90
28484;DHT22;15704;48.834;8.736;2022-08-19T12:06:23;25.20;99.90
28484;DHT22;15704;48.834;8.736;2022-08-19T12:10:10;24.90;99.90
28484;DHT22;15704;48.834;8.736;2022-08-19T12:13:53;25.20;99.90
28484;DHT22;15704;48.834;8.736;2022-08-19T12:17:36;25.00;99.90
28484;DHT22;15704;48.834;8.736;2022-08-19T12:21:22;25.40;99.90
28484;DHT22;15704;48.834;8.736;2022-08-19T12:25:06;25.70;99.90
28484;DHT22;15704;48.834;8.736;2022-08-19T12:28:50;25.40;99.90
28484;DHT22;15704;48.834;8.736;2022-08-19T12:32:35;25.50;99.90
28484;DHT22;15704;48.834;8.736;2022-08-19T12:36:19;25.60;99.90
28484;DHT22;15704;48.834;8.736;2022-08-19T12:40:07;25.10;99.90
28484;DHT22;15704;48.834;8.736;2022-08-19T12:43:51;24.90;99.90
28484;DHT22;15704;48.834;8.736;2022-08-19T12:47:37;24.70;99.90
28484;DHT22;15704;48.834;8.736;2022-08-19T12:51:24;25.10;99.90
28484;DHT22;15704;48.834;8.736;2022-08-19T12:55:09;25.30;99.90
28484;DHT22;15704;48.834;8.736;2022-08-19T12:58:51;25.50;99.90
28484;DHT22;15704;48.834;8.736;2022-08-19T13:02:34;25.70;99.90
28484;DHT22;15704;48.834;8.736;2022-08-19T13:06:19;25.60;99.90
28484;DHT22;15704;48.834;8.736;2022-08-19T13:10:05;25.50;99.90
28484;DHT22;15704;48.834;8.736;2022-08-19T13:13:49;25.70;99.90
28484;DHT22;15704;48.834;8.736;2022-08-19T13:17:33;25.70;99.90
28484;DHT22;15704;48.834;8.736;2022-08-19T13:21:16;26.00;99.90
28484;DHT22;15704;48.834;8.736;2022-08-19T13:25:05;25.40;99.90
28484;DHT22;15704;48.834;8.736;2022-08-19T13:28:48;25.10;99.90
28484;DHT22;15704;48.834;8.736;2022-08-19T13:32:48;25.40;99.90
28484;DHT22;15704;48.834;8.736;2022-08-19T13:36:48;25.50;99.90
28484;DHT22;15704;48.834;8.736;2022-08-19T13:40:41;25.50;99.90
28484;DHT22;15704;48.834;8.736;2022-08-19T13:44:24;25.70;99.90
28484;DHT22;15704;48.834;8.736;2022-08-19T13:48:08;25.90;99.90
28484;DHT22;15704;48.834;8.736;2022-08-19T13:51:50;25.70;99.90
28484;DHT22;15704;48.834;8.736;2022-08-19T13:55:33;25.50;99.90
28484;DHT22;15704;48.834;8.736;2022-08-19T13:59:18;25.10;99.90
28484;DHT22;15704;48.834;8.736;2022-08-19T14:03:02;25.10;99.90
28484;DHT22;15704;48.834;8.736;2022-08-19T14:06:49;25.20;99.90
28484;DHT22;15704;48.834;8.736;2022-08-19T14:10:32;25.50;99.90
28484;DHT22;15704;48.834;8.736;2022-08-19T14:14:15;25.10;99.90
28484;DHT22;15704;48.834;8.736;2022-08-19T14:18:02;25.00;99.90
28484;DHT22;15704;48.834;8.736;2022-08-19T14:21:45;24.70;99.90
28484;DHT22;15704;48.834;8.736;2022-08-19T14:25:29;24.60;99.90
28484;DHT22;15704;48.834;8.736;2022-08-19T14:29:12;24.30;99.90
28484;DHT22;15704;48.834;8.736;2022-08-19T14:32:56;24.40;99.90
28484;DHT22;15704;48.834;8.736;2022-08-19T14:36:41;24.60;99.90
28484;DHT22;15704;48.834;8.736;2022-08-19T14:40:26;24.60;99.90
28484;DHT22;15704;48.834;8.736;2022-08-19T14:44:08;24.70;99.90
28484;DHT22;15704;48.834;8.736;2022-08-19T14:47:53;25.00;99.90
28484;DHT22;15704;48.834;8.736;2022-08-19T14:51:40;25.00;99.90
28484;DHT22;15704;48.834;8.736;2022-08-19T14:55:23;25.20;99.90
28484;DHT22;15704;48.834;8.736;2022-08-19T14:59:06;25.60;99.90
28484;DHT22;15704;48.834;8.736;2022-08-19T15:02:49;25.80;99.90
28484;DHT22;15704;48.834;8.736;2022-08-19T15:06:32;25.80;99.90
28484;DHT22;15704;48.834;8.736;2022-08-19T15:10:16;26.00;99.90
28484;DHT22;15704;48.834;8.736;2022-08-19T15:13:59;26.00;99.90
28484;DHT22;15704;48.834;8.736;2022-08-19T15:17:43;25.80;99.90
28484;DHT22;15704;48.834;8.736;2022-08-19T15:21:28;25.90;99.90
28484;DHT22;15704;48.834;8.736;2022-08-19T15:25:13;26.20;99.90
28484;DHT22;15704;48.834;8.736;2022-08-19T15:28:58;26.20;99.90
28484;DHT22;15704;48.834;8.736;2022-08-19T15:32:41;26.30;99.90
28484;DHT22;15704;48.834;8.736;2022-08-19T15:36:29;26.10;99.90
28484;DHT22;15704;48.834;8.736;2022-08-19T15:40:15;25.90;99.90
28484;DHT22;15704;48.834;8.736;2022-08-19T15:44:02;25.60;99.90
28484;DHT22;15704;48.834;8.736;2022-08-19T15:47:47;25.20;99.90
28484;DHT22;15704;48.834;8.736;2022-08-19T15:51:32;25.00;99.90
28484;DHT22;15704;48.834;8.736;2022-08-19T15:55:17;25.00;99.90
28484;DHT22;15704;48.834;8.736;2022-08-19T15:59:16;25.00;99.90
28484;DHT22;15704;48.834;8.736;2022-08-19T16:03:26;24.70;99.90
28484;DHT22;15704;48.834;8.736;2022-08-19T16:07:29;24.40;99.90
28484;DHT22;15704;48.834;8.736;2022-08-19T16:11:12;24.30;99.90
28484;DHT22;15704;48.834;8.736;2022-08-19T16:15:02;24.20;99.90
28484;DHT22;15704;48.834;8.736;2022-08-19T16:18:45;24.20;99.90
28484;DHT22;15704;48.834;8.736;2022-08-19T16:22:29;24.30;99.90
28484;DHT22;15704;48.834;8.736;2022-08-19T16:26:14;24.40;99.90
28484;DHT22;15704;48.834;8.736;2022-08-19T16:29:57;24.50;99.90
28484;DHT22;15704;48.834;8.736;2022-08-19T16:33:41;24.40;99.90
28484;DHT22;15704;48.834;8.736;2022-08-19T16:37:24;24.30;99.90
28484;DHT22;15704;48.834;8.736;2022-08-19T16:41:07;24.10;99.90
28484;DHT22;15704;48.834;8.736;2022-08-19T16:44:49;24.20;99.90
28484;DHT22;15704;48.834;8.736;2022-08-19T16:48:32;24.20;99.90
28484;DHT22;15704;48.834;8.736;2022-08-19T16:52:17;24.10;99.90
28484;DHT22;15704;48.834;8.736;2022-08-19T16:56:00;24.10;99.90
28484;DHT22;15704;48.834;8.736;2022-08-19T16:59:43;24.10;99.90
28484;DHT22;15704;48.834;8.736;2022-08-19T17:03:30;24.30;99.90
28484;DHT22;15704;48.834;8.736;2022-08-19T17:07:18;24.10;99.90
28484;DHT22;15704;48.834;8.736;2022-08-19T17:11:01;24.20;99.90
28484;DHT22;15704;48.834;8.736;2022-08-19T17:15:00;24.30;99.90
28484;DHT22;15704;48.834;8.736;2022-08-19T17:18:43;24.30;99.90
28484;DHT22;15704;48.834;8.736;2022-08-19T17:22:27;24.20;99.90
28484;DHT22;15704;48.834;8.736;2022-08-19T17:26:10;24.10;99.90
28484;DHT22;15704;48.834;8.736;2022-08-19T17:30:00;24.00;99.90
28484;DHT22;15704;48.834;8.736;2022-08-19T17:33:43;23.90;99.90
28484;DHT22;15704;48.834;8.736;2022-08-19T17:37:31;23.80;99.90
28484;DHT22;15704;48.834;8.736;2022-08-19T17:41:14;23.80;99.90
28484;DHT22;15704;48.834;8.736;2022-08-19T17:44:57;23.70;99.90
28484;DHT22;15704;48.834;8.736;2022-08-19T17:48:40;23.60;99.90
28484;DHT22;15704;48.834;8.736;2022-08-19T17:52:23;23.50;99.90
28484;DHT22;15704;48.834;8.736;2022-08-19T17:56:07;23.50;99.90
28484;DHT22;15704;48.834;8.736;2022-08-19T17:59:51;23.40;99.90
28484;DHT22;15704;48.834;8.736;2022-08-19T18:03:34;23.10;99.90
28484;DHT22;15704;48.834;8.736;2022-08-19T18:07:17;22.90;99.90
28484;DHT22;15704;48.834;8.736;2022-08-19T18:11:02;22.80;99.90
28484;DHT22;15704;48.834;8.736;2022-08-19T18:14:46;22.70;99.90
28484;DHT22;15704;48.834;8.736;2022-08-19T18:18:28;22.60;99.90
28484;DHT22;15704;48.834;8.736;2022-08-19T18:22:11;22.60;99.90
28484;DHT22;15704;48.834;8.736;2022-08-19T18:25:54;22.50;99.90
28484;DHT22;15704;48.834;8.736;2022-08-19T18:29:37;22.40;99.90
28484;DHT22;15704;48.834;8.736;2022-08-19T18:33:22;22.40;99.90
28484;DHT22;15704;48.834;8.736;2022-08-19T18:37:05;22.30;99.90
28484;DHT22;15704;48.834;8.736;2022-08-19T18:40:48;22.10;99.90
28484;DHT22;15704;48.834;8.736;2022-08-19T18:44:48;22.00;99.90
28484;DHT22;15704;48.834;8.736;2022-08-19T18:48:50;21.80;99.90
28484;DHT22;15704;48.834;8.736;2022-08-19T18:52:48;21.50;99.90
28484;DHT22;15704;48.834;8.736;2022-08-19T18:56:31;21.40;99.90
28484;DHT22;15704;48.834;8.736;2022-08-19T19:00:16;21.20;99.90
28484;DHT22;15704;48.834;8.736;2022-08-19T19:04:02;21.10;99.90
28484;DHT22;15704;48.834;8.736;2022-08-19T19:07:45;21.10;99.90
28484;DHT22;15704;48.834;8.736;2022-08-19T19:11:30;21.10;99.90
28484;DHT22;15704;48.834;8.736;2022-08-19T19:15:14;21.10;99.90
28484;DHT22;15704;48.834;8.736;2022-08-19T19:18:57;21.10;99.90
28484;DHT22;15704;48.834;8.736;2022-08-19T19:22:41;21.20;99.90
28484;DHT22;15704;48.834;8.736;2022-08-19T19:26:24;21.10;99.90
28484;DHT22;15704;48.834;8.736;2022-08-19T19:30:07;21.10;99.90
28484;DHT22;15704;48.834;8.736;2022-08-19T19:33:51;21.10;99.90
28484;DHT22;15704;48.834;8.736;2022-08-19T19:37:35;21.10;99.90
28484;DHT22;15704;48.834;8.736;2022-08-19T19:41:21;21.00;99.90
28484;DHT22;15704;48.834;8.736;2022-08-19T19:45:05;21.00;99.90
28484;DHT22;15704;48.834;8.736;2022-08-19T19:48:48;21.00;99.90
28484;DHT22;15704;48.834;8.736;2022-08-19T19:52:31;21.00;99.90
28484;DHT22;15704;48.834;8.736;2022-08-19T19:56:14;21.00;99.90
28484;DHT22;15704;48.834;8.736;2022-08-19T20:00:08;21.00;99.90
28484;DHT22;15704;48.834;8.736;2022-08-19T20:03:53;21.10;99.90
28484;DHT22;15704;48.834;8.736;2022-08-19T20:07:36;21.00;99.90
28484;DHT22;15704;48.834;8.736;2022-08-19T20:11:39;21.10;99.90
28484;DHT22;15704;48.834;8.736;2022-08-19T20:15:23;21.10;99.90
28484;DHT22;15704;48.834;8.736;2022-08-19T20:19:07;21.10;99.90
28484;DHT22;15704;48.834;8.736;2022-08-19T20:22:49;21.10;99.90
28484;DHT22;15704;48.834;8.736;2022-08-19T20:26:32;21.10;99.90
28484;DHT22;15704;48.834;8.736;2022-08-19T20:30:19;21.00;99.90
28484;DHT22;15704;48.834;8.736;2022-08-19T20:34:04;21.00;99.90
28484;DHT22;15704;48.834;8.736;2022-08-19T20:37:48;20.90;99.90
28484;DHT22;15704;48.834;8.736;2022-08-19T20:41:39;20.90;99.90
28484;DHT22;15704;48.834;8.736;2022-08-19T20:45:23;20.80;99.90
28484;DHT22;15704;48.834;8.736;2022-08-19T20:49:15;20.80;99.90
28484;DHT22;15704;48.834;8.736;2022-08-19T20:52:58;20.70;99.90
28484;DHT22;15704;48.834;8.736;2022-08-19T20:56:41;20.60;99.90
28484;DHT22;15704;48.834;8.736;2022-08-19T21:00:23;20.50;99.90
28484;DHT22;15704;48.834;8.736;2022-08-19T21:04:06;20.50;99.90
28484;DHT22;15704;48.834;8.736;2022-08-19T21:07:50;20.40;99.90
28484;DHT22;15704;48.834;8.736;2022-08-19T21:11:32;20.30;99.90
28484;DHT22;15704;48.834;8.736;2022-08-19T21:15:15;20.30;99.90
28484;DHT22;15704;48.834;8.736;2022-08-19T21:18:58;20.30;99.90
28484;DHT22;15704;48.834;8.736;2022-08-19T21:22:41;20.20;99.90
28484;DHT22;15704;48.834;8.736;2022-08-19T21:26:25;20.20;99.90
28484;DHT22;15704;48.834;8.736;2022-08-19T21:30:09;20.20;99.90
28484;DHT22;15704;48.834;8.736;2022-08-19T21:33:52;20.20;99.90
28484;DHT22;15704;48.834;8.736;2022-08-19T21:37:35;20.10;99.90
28484;DHT22;15704;48.834;8.736;2022-08-19T21:41:19;20.20;99.90
28484;DHT22;15704;48.834;8.736;2022-08-19T21:45:03;20.20;99.90
28484;DHT22;15704;48.834;8.736;2022-08-19T21:48:46;20.10;99.90
28484;DHT22;15704;48.834;8.736;2022-08-19T21:52:29;20.10;99.90
28484;DHT22;15704;48.834;8.736;2022-08-19T21:56:12;20.10;99.90
28484;DHT22;15704;48.834;8.736;2022-08-19T21:59:54;20.00;99.90
28484;DHT22;15704;48.834;8.736;2022-08-19T22:03:39;19.90;99.90
28484;DHT22;15704;48.834;8.736;2022-08-19T22:07:22;19.80;99.90
28484;DHT22;15704;48.834;8.736;2022-08-19T22:11:04;19.70;99.90
28484;DHT22;15704;48.834;8.736;2022-08-19T22:14:48;19.60;99.90
28484;DHT22;15704;48.834;8.736;2022-08-19T22:18:30;19.50;99.90
28484;DHT22;15704;48.834;8.736;2022-08-19T22:22:20;19.40;99.90
28484;DHT22;15704;48.834;8.736;2022-08-19T22:26:04;19.40;99.90
28484;DHT22;15704;48.834;8.736;2022-08-19T22:29:47;19.30;99.90
28484;DHT22;15704;48.834;8.736;2022-08-19T22:33:33;19.30;99.90
28484;DHT22;15704;48.834;8.736;2022-08-19T22:53:00;18.70;99.90
28484;DHT22;15704;48.834;8.736;2022-08-19T22:56:44;18.70;99.90
28484;DHT22;15704;48.834;8.736;2022-08-19T23:00:27;18.70;99.90
28484;DHT22;15704;48.834;8.736;2022-08-19T23:04:10;18.70;99.90
28484;DHT22;15704;48.834;8.736;2022-08-19T23:07:53;18.70;99.90
28484;DHT22;15704;48.834;8.736;2022-08-19T23:11:39;18.70;99.90
28484;DHT22;15704;48.834;8.736;2022-08-19T23:15:25;18.70;99.90
28484;DHT22;15704;48.834;8.736;2022-08-19T23:19:09;18.70;99.90
28484;DHT22;15704;48.834;8.736;2022-08-19T23:22:52;18.70;99.90
28484;DHT22;15704;48.834;8.736;2022-08-19T23:26:36;18.70;99.90
28484;DHT22;15704;48.834;8.736;2022-08-19T23:30:20;18.60;99.90
28484;DHT22;15704;48.834;8.736;2022-08-19T23:34:08;18.60;99.90
28484;DHT22;15704;48.834;8.736;2022-08-19T23:37:51;18.60;99.90
28484;DHT22;15704;48.834;8.736;2022-08-19T23:41:34;18.60;99.90
28484;DHT22;15704;48.834;8.736;2022-08-19T23:45:18;18.50;99.90
28484;DHT22;15704;48.834;8.736;2022-08-19T23:49:06;18.50;99.90
28484;DHT22;15704;48.834;8.736;2022-08-19T23:52:50;18.50;99.90
28484;DHT22;15704;48.834;8.736;2022-08-19T23:56:33;18.50;99.90
